Garland's Hourly Summary for Wednesday, May 9, 2018
Hour Temp
(f)
RH
(%)
Solar Rad.
(MJ/m2)
Rainfall
(in)
Wind
(mph)
5/9/2018 12:00 AM 75 44 0 0 7.24
5/9/2018 1:00 AM 74 48 0 0 7.35
5/9/2018 2:00 AM 73 48 0 0 9.29
5/9/2018 3:00 AM 71 47 0 0 8.7
5/9/2018 4:00 AM 71 44 0 0 9.25
5/9/2018 5:00 AM 69 43 0 0 8.59
5/9/2018 6:00 AM 67 45 0 0 6.32
5/9/2018 7:00 AM 66 51 0.03 0 5.22
5/9/2018 8:00 AM 66 55 0.52 0 5.77
5/9/2018 9:00 AM 69 51 1.2 0 6.95
5/9/2018 10:00 AM 71 51 1.9 0 7.05
5/9/2018 11:00 AM 74 43 2.35 0 7.13
5/9/2018 12:00 PM 77 37 2.78 0 9.02
5/9/2018 1:00 PM 80 29 3.23 0 10.11
5/9/2018 2:00 PM 81 30 3.29 0 11.55
5/9/2018 3:00 PM 82 29 3.16 0 11.9
5/9/2018 4:00 PM 83 30 2.62 0 11.2
5/9/2018 5:00 PM 84 28 2.29 0 10.84
5/9/2018 6:00 PM 84 30 1.47 0 10.5
5/9/2018 7:00 PM 83 31 0.81 0 9.83
5/9/2018 8:00 PM 81 33 0.31 0 9.73
5/9/2018 9:00 PM 79 35 0.01 0 6.16
5/9/2018 10:00 PM 77 41 0 0 5.19
5/9/2018 11:00 PM 76 40 0 0 4.93
Data Summary 75 40 25.97 0.00 8.33